Time;durP1;ratioP1;P1;durP2;ratioP2;P2;SDS_P1;SDS_P2;PMS_P1;PMS_P2;Temp;Humidity;BMP_temperature;BMP_pressure;BME280_temperature;BME280_humidity;BME280_pressure;Samples;Min_cycle;Max_cycle;Signal;HPM_P1;HPM_P2
2022/03/09 00:02:12;;;;;;;2.80;2.60;;;;;;;-0.46;72.18;101281.22;5032313;28;20218;-73
2022/03/09 00:04:37;;;;;;;3.67;2.77;;;;;;;-0.16;72.03;101295.63;5050350;28;20171;-74
2022/03/09 00:07:04;;;;;;;5.27;4.47;;;;;;;0.05;72.35;101304.34;5050014;28;20634;-73
2022/03/09 00:09:29;;;;;;;5.97;4.93;;;;;;;0.03;72.22;101301.06;5050213;28;20269;-74
2022/03/09 00:11:55;;;;;;;4.27;3.47;;;;;;;-0.19;73.07;101301.44;5050203;28;20267;-73
2022/03/09 00:14:20;;;;;;;3.17;2.87;;;;;;;-0.70;73.89;101302.44;5050204;28;20171;-74
2022/03/09 00:16:46;;;;;;;3.50;3.07;;;;;;;-0.64;74.76;101306.09;5050069;28;20178;-75
2022/03/09 00:19:11;;;;;;;3.90;3.57;;;;;;;-0.34;74.94;101322.41;5050060;28;20322;-73
2022/03/09 00:21:36;;;;;;;5.67;3.47;;;;;;;-0.08;74.14;101327.59;5049980;28;20205;-74
2022/03/09 00:24:02;;;;;;;4.97;4.00;;;;;;;-0.11;74.05;101325.34;5049953;28;20178;-73
2022/03/09 00:26:28;;;;;;;8.13;3.30;;;;;;;0.03;74.27;101336.00;5049933;28;20170;-73
2022/03/09 00:28:53;;;;;;;3.60;3.03;;;;;;;-0.04;74.00;101325.28;5049639;28;20183;-73
2022/03/09 00:31:18;;;;;;;3.90;3.10;;;;;;;-0.18;74.30;101321.06;5049979;28;20185;-74
2022/03/09 00:33:44;;;;;;;3.67;3.30;;;;;;;-0.19;74.36;101330.97;5049982;28;20267;-74
2022/03/09 00:36:10;;;;;;;2.77;2.40;;;;;;;-0.25;74.72;101323.81;5049929;28;20551;-73
2022/03/09 00:38:35;;;;;;;3.33;2.97;;;;;;;-0.37;74.81;101312.13;5049566;28;20206;-74
2022/03/09 00:41:02;;;;;;;2.30;2.10;;;;;;;-0.48;74.54;101312.81;5032201;28;20275;-73
2022/03/09 00:43:28;;;;;;;2.83;2.57;;;;;;;-0.75;75.21;101315.66;5049910;28;20168;-73
2022/03/09 00:45:54;;;;;;;2.83;2.10;;;;;;;-0.91;76.30;101314.31;5049883;28;20168;-74
2022/03/09 00:48:19;;;;;;;2.60;2.27;;;;;;;-1.04;76.37;101319.72;5049654;28;20780;-74
2022/03/09 00:50:45;;;;;;;2.57;2.10;;;;;;;-1.22;77.10;101316.91;5052172;28;20189;-74
2022/03/09 00:53:11;;;;;;;4.77;2.83;;;;;;;-1.29;77.66;101330.38;5053598;28;20191;-74
2022/03/09 00:55:36;;;;;;;2.17;1.97;;;;;;;-1.27;78.49;101336.34;5053732;28;20170;-74
2022/03/09 00:58:02;;;;;;;2.50;2.03;;;;;;;-1.34;79.74;101332.00;5053558;28;20258;-74
2022/03/09 01:00:27;;;;;;;1.50;1.40;;;;;;;-1.31;79.27;101336.94;5053637;28;20588;-74
2022/03/09 01:02:52;;;;;;;1.93;1.47;;;;;;;-1.31;79.28;101340.44;5053438;28;20214;-74
2022/03/09 01:05:18;;;;;;;2.97;2.60;;;;;;;-1.22;77.94;101344.56;5053555;28;20172;-74
2022/03/09 01:07:43;;;;;;;2.27;1.93;;;;;;;-1.15;78.09;101343.72;5053199;28;20674;-74
2022/03/09 01:10:09;;;;;;;2.83;1.80;;;;;;;-1.20;78.25;101339.78;5053387;28;20530;-74
2022/03/09 01:12:35;;;;;;;1.70;1.53;;;;;;;-1.21;78.23;101346.19;5053340;28;20183;-75
2022/03/09 01:15:01;;;;;;;2.37;2.17;;;;;;;-1.24;78.24;101353.84;5053383;28;20167;-74
2022/03/09 01:17:26;;;;;;;2.20;1.53;;;;;;;-1.25;78.62;101350.34;5053063;28;20171;-74
2022/03/09 01:19:53;;;;;;;2.27;2.07;;;;;;;-1.16;78.24;101353.59;5053287;28;20571;-74
2022/03/09 01:22:18;;;;;;;3.80;2.00;;;;;;;-1.11;78.38;101342.25;5053078;28;20230;-74
2022/03/09 01:24:44;;;;;;;3.53;2.40;;;;;;;-1.01;77.74;101348.00;5053448;28;20445;-74
2022/03/09 01:27:09;;;;;;;2.30;1.90;;;;;;;-0.84;77.95;101351.03;5052857;28;20198;-75
2022/03/09 01:29:35;;;;;;;2.33;1.97;;;;;;;-0.76;78.00;101354.25;5052943;28;20233;-74
2022/03/09 01:32:00;;;;;;;2.57;2.37;;;;;;;-0.74;77.56;101352.19;5053028;28;20186;-74
2022/03/09 01:34:26;;;;;;;1.87;1.77;;;;;;;-0.74;77.47;101348.69;5052956;28;20175;-74
2022/03/09 01:36:51;;;;;;;2.60;2.40;;;;;;;-0.77;77.73;101352.63;5052763;28;20597;-74
2022/03/09 01:39:16;;;;;;;2.63;2.40;;;;;;;-0.77;77.59;101355.28;5052770;28;20265;-74
2022/03/09 01:41:42;;;;;;;3.23;1.60;;;;;;;-0.72;77.35;101354.69;5052724;28;20195;-74
2022/03/09 01:44:11;;;;;;;1.73;1.60;;;;;;;-0.68;77.58;101354.03;5052963;28;20539;-74
2022/03/09 01:46:38;;;;;;;3.13;2.83;;;;;;;-0.67;76.97;101352.16;5052644;28;20203;-74
2022/03/09 01:49:05;;;;;;;2.93;2.73;;;;;;;-0.65;76.68;101352.78;5052560;28;20233;-74
2022/03/09 01:51:32;;;;;;;4.03;2.53;;;;;;;-0.64;77.06;101352.53;5052542;28;20604;-73
2022/03/09 01:53:58;;;;;;;2.10;1.90;;;;;;;-0.64;76.45;101351.72;5052821;28;20460;-74
2022/03/09 01:56:23;;;;;;;2.63;1.97;;;;;;;-0.66;76.58;101341.22;5052786;28;20418;-74
2022/03/09 01:58:48;;;;;;;2.70;2.13;;;;;;;-0.68;76.96;101335.25;5052260;28;20175;-75
2022/03/09 02:01:14;;;;;;;2.90;1.83;;;;;;;-0.65;77.01;101342.84;5052277;28;20788;-73
2022/03/09 02:03:39;;;;;;;2.83;1.83;;;;;;;-0.73;76.14;101337.72;5052437;28;20632;-74
2022/03/09 02:06:04;;;;;;;1.93;1.50;;;;;;;-0.58;76.91;101341.97;5052344;28;20175;-74
2022/03/09 02:11:14;;;;;;;3.20;1.93;;;;;;;-0.78;76.87;101334.88;5052370;28;20646;-74
2022/03/09 02:13:39;;;;;;;2.47;2.27;;;;;;;-0.88;76.80;101323.78;5052389;28;20413;-73
2022/03/09 02:16:06;;;;;;;2.57;1.97;;;;;;;-1.00;77.30;101337.06;5052271;28;20251;-74
2022/03/09 02:18:31;;;;;;;2.43;2.23;;;;;;;-0.86;77.54;101342.38;5051801;28;20201;-74
2022/03/09 02:21:01;;;;;;;2.43;2.10;;;;;;;-0.75;78.01;101345.16;5051978;28;20980;-74
2022/03/09 02:23:26;;;;;;;2.53;2.33;;;;;;;-0.64;77.46;101357.09;5052047;28;20258;-74
2022/03/09 02:25:52;;;;;;;1.70;1.60;;;;;;;-0.67;77.52;101347.63;5052012;28;20426;-75
2022/03/09 02:28:17;;;;;;;2.00;1.80;;;;;;;-0.78;77.77;101342.09;5051559;28;20183;-74
2022/03/09 02:30:42;;;;;;;2.23;2.03;;;;;;;-0.95;77.85;101336.41;5052361;28;20262;-74
2022/03/09 02:33:08;;;;;;;1.90;1.70;;;;;;;-1.06;77.96;101332.53;5051827;28;20553;-74
2022/03/09 02:35:33;;;;;;;4.03;1.77;;;;;;;-1.09;78.22;101329.47;5051737;28;20310;-74
2022/03/09 02:37:59;;;;;;;6.13;2.20;;;;;;;-0.99;78.66;101332.50;5051790;28;20183;-75
2022/03/09 02:40:24;;;;;;;2.30;2.00;;;;;;;-1.02;78.11;101343.66;5051828;28;20258;-75
2022/03/09 02:42:49;;;;;;;3.23;1.80;;;;;;;-0.88;78.33;101339.03;5051620;28;20207;-74
2022/03/09 02:45:15;;;;;;;2.80;2.60;;;;;;;-0.94;78.06;101332.69;5052096;28;20175;-74
2022/03/09 02:47:42;;;;;;;3.60;2.73;;;;;;;-1.11;78.64;101328.84;5051199;28;20175;-74
2022/03/09 02:50:07;;;;;;;2.67;1.90;;;;;;;-1.29;78.51;101325.00;5051563;28;20175;-74
2022/03/09 02:52:36;;;;;;;2.33;1.90;;;;;;;-1.43;78.99;101328.75;5051655;28;20436;-74
2022/03/09 02:55:02;;;;;;;2.57;2.37;;;;;;;-1.50;79.99;101328.75;5051447;28;20187;-74
2022/03/09 02:57:27;;;;;;;2.33;2.13;;;;;;;-1.43;79.92;101323.41;5051176;28;20418;-74
2022/03/09 02:59:52;;;;;;;1.70;1.60;;;;;;;-1.34;79.99;101319.44;5051262;28;20635;-74
2022/03/09 03:02:18;;;;;;;2.87;2.13;;;;;;;-1.24;79.68;101332.41;5051286;28;20241;-74
2022/03/09 03:04:43;;;;;;;2.50;2.10;;;;;;;-1.30;79.23;101333.25;5051502;28;20318;-74
2022/03/09 03:07:08;;;;;;;3.80;2.23;;;;;;;-1.36;79.24;101326.88;5050983;28;20628;-74
2022/03/09 03:09:34;;;;;;;3.53;2.30;;;;;;;-1.39;79.85;101327.28;5051159;28;20175;-74
2022/03/09 03:11:59;;;;;;;2.47;2.27;;;;;;;-1.39;80.10;101326.47;5051235;28;20182;-74
2022/03/09 03:14:24;;;;;;;2.33;2.13;;;;;;;-1.28;80.86;101329.31;5050829;28;20186;-74
2022/03/09 03:16:50;;;;;;;2.80;2.27;;;;;;;-1.06;80.82;101334.38;5050722;28;20214;-74
2022/03/09 03:19:15;;;;;;;3.10;2.60;;;;;;;-0.94;80.45;101346.09;5051240;28;20909;-75
2022/03/09 03:21:40;;;;;;;5.03;2.83;;;;;;;-1.09;80.24;101330.28;5050890;28;20706;-75
2022/03/09 03:24:06;;;;;;;2.53;2.00;;;;;;;-1.64;80.65;101329.81;5051037;28;20186;-74
2022/03/09 03:26:31;;;;;;;3.87;2.13;;;;;;;-1.82;81.67;101343.88;5050779;28;20750;-74
2022/03/09 03:28:58;;;;;;;2.43;2.23;;;;;;;-1.75;81.98;101343.00;5050545;28;20237;-75
2022/03/09 03:31:24;;;;;;;2.37;2.17;;;;;;;-1.68;81.93;101338.50;5050711;28;20181;-74
2022/03/09 03:33:49;;;;;;;5.50;3.07;;;;;;;-1.73;82.29;101341.81;5050794;28;20422;-75
2022/03/09 03:36:15;;;;;;;2.33;2.13;;;;;;;-1.81;82.73;101340.16;5050902;28;20248;-74
2022/03/09 03:38:41;;;;;;;2.87;2.27;;;;;;;-1.73;82.97;101352.53;5050429;28;20178;-74
2022/03/09 03:41:06;;;;;;;2.43;2.23;;;;;;;-1.58;83.14;101344.25;5050583;28;20426;-74
2022/03/09 03:43:31;;;;;;;4.30;2.00;;;;;;;-1.84;83.09;101340.56;5050570;28;20171;-74
2022/03/09 03:45:57;;;;;;;2.87;2.60;;;;;;;-2.05;83.94;101332.75;5050950;28;20179;-74
2022/03/09 03:48:22;;;;;;;2.90;2.30;;;;;;;-2.12;84.73;101332.75;5050362;28;20190;-74
2022/03/09 03:50:47;;;;;;;2.63;2.40;;;;;;;-1.71;84.09;101346.94;5050423;28;20194;-74
2022/03/09 03:53:13;;;;;;;2.73;2.50;;;;;;;-1.46;83.57;101349.78;5050466;28;20229;-74
2022/03/09 03:55:38;;;;;;;2.37;2.17;;;;;;;-1.37;82.72;101354.69;5050514;28;20171;-74
2022/03/09 03:58:03;;;;;;;3.03;2.30;;;;;;;-1.36;82.28;101353.66;5032122;28;20275;-74
2022/03/09 04:00:29;;;;;;;2.97;2.67;;;;;;;-1.36;81.65;101342.94;5032369;28;20182;-76
2022/03/09 04:02:54;;;;;;;2.40;2.20;;;;;;;-1.29;82.00;101350.97;5050036;28;20203;-74
2022/03/09 04:05:20;;;;;;;2.53;2.30;;;;;;;-1.27;81.71;101344.38;5050354;28;20183;-74
2022/03/09 04:07:46;;;;;;;2.80;2.27;;;;;;;-1.56;81.54;101343.00;5050084;28;20651;-74
2022/03/09 04:10:12;;;;;;;2.50;2.30;;;;;;;-1.69;81.67;101342.19;5050379;28;20578;-74
2022/03/09 04:12:37;;;;;;;2.40;2.27;;;;;;;-1.57;82.45;101344.03;5050169;28;20428;-74
2022/03/09 04:15:03;;;;;;;2.57;2.20;;;;;;;-1.39;82.27;101358.63;5050306;28;20171;-74
2022/03/09 04:17:28;;;;;;;3.53;2.57;;;;;;;-1.37;81.69;101352.03;5049821;28;20175;-74
2022/03/09 04:19:53;;;;;;;3.53;2.10;;;;;;;-1.34;81.37;101369.53;5050411;28;20174;-74
2022/03/09 04:22:19;;;;;;;7.30;2.60;;;;;;;-1.28;82.23;101374.06;5049975;28;20302;-74
2022/03/09 04:24:44;;;;;;;3.13;2.80;;;;;;;-1.31;82.33;101367.25;5050900;28;20168;-74
2022/03/09 04:27:09;;;;;;;2.50;2.30;;;;;;;-1.17;82.67;101370.72;5054265;28;20166;-74
2022/03/09 04:29:35;;;;;;;4.67;3.60;;;;;;;-1.29;81.91;101364.38;5054053;28;20274;-74
2022/03/09 04:32:00;;;;;;;4.73;4.33;;;;;;;-1.07;81.33;101367.59;5054061;28;20195;-74
2022/03/09 04:34:26;;;;;;;6.60;5.83;;;;;;;-1.12;81.26;101364.75;5054390;28;20171;-74
2022/03/09 04:36:51;;;;;;;5.87;4.27;;;;;;;-1.25;80.87;101353.03;5053950;28;20182;-75
2022/03/09 04:39:16;;;;;;;7.30;4.93;;;;;;;-1.51;80.90;101353.09;5054255;28;20205;-74
2022/03/09 04:41:42;;;;;;;4.77;3.17;;;;;;;-1.53;81.43;101349.78;5053916;28;20217;-75
2022/03/09 04:44:08;;;;;;;3.23;2.93;;;;;;;-1.66;81.75;101353.31;5053995;28;20198;-74
2022/03/09 04:46:33;;;;;;;4.07;3.67;;;;;;;-1.56;81.61;101350.22;5053833;28;20262;-74
2022/03/09 04:48:59;;;;;;;3.37;2.90;;;;;;;-1.46;81.67;101350.59;5053771;28;20611;-73
2022/03/09 04:51:25;;;;;;;3.43;2.57;;;;;;;-1.34;81.13;101348.91;5054121;28;20175;-74
2022/03/09 04:53:51;;;;;;;2.80;2.30;;;;;;;-1.16;80.60;101355.44;5054047;28;20414;-74
2022/03/09 04:56:17;;;;;;;3.63;2.53;;;;;;;-0.98;80.36;101367.16;5053716;28;20211;-74
2022/03/09 04:58:43;;;;;;;8.97;3.93;;;;;;;-0.84;79.10;101373.31;5053389;28;20444;-73
2022/03/09 05:01:08;;;;;;;5.77;5.17;;;;;;;-0.79;78.72;101381.53;5053367;28;20417;-74
2022/03/09 05:03:34;;;;;;;6.17;4.97;;;;;;;-1.08;78.83;101377.50;5053670;28;20171;-74
2022/03/09 05:06:01;;;;;;;5.30;4.80;;;;;;;-1.02;78.88;101381.19;5053720;28;20163;-73
2022/03/09 05:08:26;;;;;;;4.13;3.67;;;;;;;-1.03;79.31;101375.00;5053371;28;20920;-74
2022/03/09 05:10:51;;;;;;;3.97;3.03;;;;;;;-1.45;80.19;101367.50;5053563;28;20410;-73
2022/03/09 05:13:20;;;;;;;5.23;2.87;;;;;;;-1.61;80.55;101366.91;5053450;28;20171;-73
2022/03/09 05:15:45;;;;;;;4.83;3.20;;;;;;;-1.52;81.51;101375.56;5053347;28;20198;-74
2022/03/09 05:18:10;;;;;;;3.17;2.87;;;;;;;-1.48;81.40;101381.31;5053218;28;20425;-75
2022/03/09 05:20:35;;;;;;;4.57;3.20;;;;;;;-1.32;80.94;101381.69;5053220;28;20171;-74
2022/03/09 05:23:01;;;;;;;4.77;2.77;;;;;;;-1.32;80.80;101384.38;5053211;28;20306;-73
2022/03/09 05:25:28;;;;;;;4.80;3.87;;;;;;;-1.36;80.67;101387.69;5053140;28;20175;-74
2022/03/09 05:27:53;;;;;;;4.40;3.20;;;;;;;-1.40;80.59;101386.47;5052700;28;20186;-74
2022/03/09 05:30:18;;;;;;;3.73;3.10;;;;;;;-1.39;81.40;101380.06;5052952;28;20180;-74
2022/03/09 05:32:44;;;;;;;5.90;4.37;;;;;;;-1.42;81.57;101375.13;5053060;28;20182;-73
2022/03/09 05:35:09;;;;;;;16.30;7.70;;;;;;;-1.53;82.11;101382.78;5052859;28;20175;-73
2022/03/09 05:37:39;;;;;;;6.17;4.43;;;;;;;-1.59;82.32;101370.22;5052624;28;20190;-74
2022/03/09 05:40:06;;;;;;;13.90;3.97;;;;;;;-1.70;82.63;101373.53;5052698;28;20636;-74
2022/03/09 05:42:31;;;;;;;6.07;3.17;;;;;;;-1.69;82.98;101369.00;5052860;28;20548;-74
2022/03/09 05:44:57;;;;;;;2.77;2.57;;;;;;;-1.68;83.29;101359.91;5053207;28;20556;-73
2022/03/09 05:47:22;;;;;;;2.50;2.30;;;;;;;-1.61;83.20;101366.91;5052568;28;20178;-74
2022/03/09 05:49:47;;;;;;;3.17;2.63;;;;;;;-1.54;83.51;101364.22;5052864;28;20247;-74
2022/03/09 05:52:13;;;;;;;2.90;2.70;;;;;;;-1.52;83.10;101359.47;5052990;28;20642;-74
2022/03/09 05:54:38;;;;;;;3.77;3.20;;;;;;;-1.50;83.21;101360.09;5052611;28;20586;-74
2022/03/09 05:57:04;;;;;;;2.43;2.23;;;;;;;-1.48;82.90;101366.06;5052281;28;20167;-74
2022/03/09 05:59:29;;;;;;;3.50;2.43;;;;;;;-1.46;83.09;101376.56;5052331;28;20185;-74
2022/03/09 06:01:55;;;;;;;4.30;3.83;;;;;;;-1.51;82.48;101366.47;5052478;28;20253;-74
2022/03/09 06:04:20;;;;;;;3.57;3.23;;;;;;;-1.57;82.91;101367.31;5052573;28;20167;-74
2022/03/09 06:06:45;;;;;;;7.87;3.33;;;;;;;-1.57;83.21;101370.84;5052331;28;20638;-74
2022/03/09 06:09:10;;;;;;;4.07;3.10;;;;;;;-1.55;83.42;101371.44;5052333;28;20175;-74
2022/03/09 06:11:36;;;;;;;4.50;2.93;;;;;;;-1.57;83.00;101364.66;5052401;28;20186;-74
2022/03/09 06:14:01;;;;;;;4.60;3.07;;;;;;;-1.63;83.00;101373.50;5052135;28;20213;-75
2022/03/09 06:16:27;;;;;;;3.47;3.17;;;;;;;-1.69;83.53;101372.50;5052489;28;20172;-75
2022/03/09 06:18:52;;;;;;;2.67;2.10;;;;;;;-1.60;84.09;101378.44;5052230;28;20171;-74
2022/03/09 06:21:17;;;;;;;3.50;3.20;;;;;;;-1.55;84.73;101390.19;5051951;28;20176;-74
2022/03/09 06:23:42;;;;;;;3.07;2.80;;;;;;;-1.52;84.94;101387.09;5052226;28;20179;-74
2022/03/09 06:26:08;;;;;;;4.77;3.67;;;;;;;-1.47;84.97;101381.09;5052054;28;20182;-74
2022/03/09 06:28:33;;;;;;;3.57;3.27;;;;;;;-1.54;85.24;101383.81;5051560;28;20606;-74
2022/03/09 06:30:59;;;;;;;3.20;3.00;;;;;;;-1.61;85.41;101379.47;5034122;28;20185;-73
2022/03/09 06:33:25;;;;;;;4.47;3.97;;;;;;;-1.67;85.04;101383.00;5051820;28;20182;-75
2022/03/09 06:35:50;;;;;;;4.97;4.03;;;;;;;-1.58;85.46;101393.31;5052028;28;20173;-74
2022/03/09 06:38:16;;;;;;;7.07;4.47;;;;;;;-1.43;85.76;101389.56;5051526;28;20550;-75
2022/03/09 06:40:42;;;;;;;5.87;4.80;;;;;;;-1.36;86.42;101387.69;5051841;28;20171;-75
2022/03/09 06:43:08;;;;;;;4.43;3.97;;;;;;;-1.22;86.46;101384.75;5051573;28;20226;-74
2022/03/09 06:45:33;;;;;;;6.60;4.10;;;;;;;-1.12;86.60;101399.59;5052010;28;20631;-74
2022/03/09 06:48:00;;;;;;;3.80;3.37;;;;;;;-1.02;86.26;101392.72;5050669;28;20210;-73
2022/03/09 06:50:25;;;;;;;4.67;4.13;;;;;;;-0.87;85.44;101391.66;5052184;28;20238;-74
2022/03/09 06:52:50;;;;;;;4.40;3.37;;;;;;;-0.76;84.05;101399.03;5052131;28;20461;-74
2022/03/09 06:55:16;;;;;;;6.40;3.43;;;;;;;-0.64;82.43;101395.47;5051499;28;20198;-74
2022/03/09 06:57:41;;;;;;;3.93;3.23;;;;;;;-0.39;81.50;101408.16;5051076;28;20218;-74
2022/03/09 07:00:10;;;;;;;6.03;3.93;;;;;;;-0.27;79.80;101422.56;5051285;28;20268;-74
2022/03/09 07:02:35;;;;;;;3.27;2.97;;;;;;;-0.13;79.29;101420.59;5051323;28;20210;-74
2022/03/09 07:05:01;;;;;;;4.13;3.73;;;;;;;-0.06;78.54;101422.19;5051298;28;20924;-74
2022/03/09 07:07:26;;;;;;;5.40;3.77;;;;;;;0.09;78.37;101418.38;5051074;28;20179;-74
2022/03/09 07:09:51;;;;;;;3.07;2.87;;;;;;;0.18;77.86;101425.13;5051130;28;20183;-73
2022/03/09 07:12:17;;;;;;;4.53;3.00;;;;;;;0.35;77.54;101433.47;5051063;28;20183;-74
2022/03/09 07:14:42;;;;;;;5.00;3.60;;;;;;;0.47;76.83;101423.66;5051071;28;20179;-74
2022/03/09 07:17:07;;;;;;;5.07;2.90;;;;;;;0.60;76.18;101428.91;5050836;28;20237;-74
2022/03/09 07:19:33;;;;;;;3.83;3.30;;;;;;;0.72;75.35;101421.75;5051119;28;20267;-73
2022/03/09 07:21:58;;;;;;;3.97;3.43;;;;;;;0.85;74.46;101437.75;5050851;28;20221;-74
2022/03/09 07:24:24;;;;;;;7.37;3.67;;;;;;;1.06;74.31;101428.44;5050998;28;20245;-74
2022/03/09 07:26:49;;;;;;;6.43;3.20;;;;;;;1.26;73.08;101430.06;5050662;28;20183;-73
2022/03/09 07:29:17;;;;;;;7.77;3.63;;;;;;;1.39;72.50;101421.84;5050646;28;20187;-73
2022/03/09 07:31:42;;;;;;;4.10;3.70;;;;;;;1.61;71.82;101430.28;5050734;28;20171;-74
2022/03/09 07:34:08;;;;;;;8.67;3.57;;;;;;;1.77;70.81;101430.44;5050706;28;20220;-74
2022/03/09 07:36:33;;;;;;;5.20;3.53;;;;;;;1.90;70.55;101431.31;5050573;28;20523;-74
2022/03/09 07:38:58;;;;;;;3.63;3.33;;;;;;;1.92;69.81;101434.59;5050595;28;20197;-73
2022/03/09 07:41:24;;;;;;;3.27;2.87;;;;;;;1.96;69.44;101435.78;5050556;28;20167;-74
2022/03/09 07:43:49;;;;;;;3.93;3.37;;;;;;;2.02;69.32;101432.16;5050574;28;20600;-74
2022/03/09 07:46:14;;;;;;;4.47;4.07;;;;;;;2.06;69.04;101434.16;5050660;28;20171;-74
2022/03/09 07:48:40;;;;;;;2.80;2.50;;;;;;;2.15;68.87;101436.53;5050281;28;20177;-74
2022/03/09 07:51:05;;;;;;;4.90;3.70;;;;;;;2.23;68.49;101434.31;5050581;28;20171;-74
2022/03/09 07:53:31;;;;;;;3.70;3.00;;;;;;;2.29;68.61;101425.28;5050552;28;20631;-74
2022/03/09 07:55:56;;;;;;;2.97;2.67;;;;;;;2.46;68.69;101430.84;5050466;28;20661;-73
2022/03/09 07:58:21;;;;;;;3.87;3.47;;;;;;;2.60;67.91;101434.97;5032194;28;20602;-74
2022/03/09 08:00:47;;;;;;;4.60;3.30;;;;;;;2.76;67.47;101433.44;5050357;28;20247;-74
2022/03/09 08:03:12;;;;;;;4.73;3.60;;;;;;;2.89;66.74;101438.59;5050319;28;20276;-74
2022/03/09 08:05:37;;;;;;;3.10;2.57;;;;;;;3.05;66.31;101428.13;5050388;28;20674;-74
2022/03/09 08:08:03;;;;;;;4.20;3.50;;;;;;;3.14;65.61;101445.59;5049810;28;20274;-75
2022/03/09 08:10:28;;;;;;;4.57;3.80;;;;;;;3.28;64.79;101442.38;5050017;28;20187;-75
2022/03/09 08:12:54;;;;;;;3.50;3.20;;;;;;;3.37;64.91;101444.72;5049240;28;20639;-75
2022/03/09 08:15:19;;;;;;;3.47;3.17;;;;;;;3.51;64.90;101441.53;5050423;28;20176;-74
2022/03/09 08:17:44;;;;;;;3.93;3.53;;;;;;;3.72;64.08;101442.72;5049658;28;20266;-74
2022/03/09 08:20:10;;;;;;;4.27;3.40;;;;;;;3.88;63.35;101441.13;5049599;28;20282;-75
2022/03/09 08:22:36;;;;;;;3.87;3.47;;;;;;;3.97;62.49;101441.56;5050068;28;20202;-74
2022/03/09 08:25:02;;;;;;;3.53;3.23;;;;;;;4.20;61.25;101443.34;5050109;28;20221;-74
2022/03/09 08:27:27;;;;;;;3.93;3.53;;;;;;;4.38;60.31;101434.97;5049616;28;20273;-74
2022/03/09 08:29:53;;;;;;;4.97;4.23;;;;;;;4.44;62.26;101436.69;5050129;28;20531;-74
2022/03/09 08:32:19;;;;;;;5.13;4.10;;;;;;;4.52;63.52;101441.72;5050111;28;20207;-74
2022/03/09 08:34:46;;;;;;;6.87;3.87;;;;;;;4.60;62.64;101441.28;5050043;28;20171;-74
2022/03/09 08:37:11;;;;;;;4.80;4.07;;;;;;;4.86;62.81;101436.25;5049731;28;20179;-74
2022/03/09 08:39:36;;;;;;;7.20;4.77;;;;;;;4.78;63.70;101437.50;5049912;28;20175;-75
2022/03/09 08:42:02;;;;;;;4.77;4.23;;;;;;;4.73;64.17;101432.00;5049866;28;20214;-75
2022/03/09 08:44:28;;;;;;;5.27;4.03;;;;;;;4.77;62.87;101442.09;5050104;28;20233;-74
2022/03/09 08:46:53;;;;;;;4.90;4.40;;;;;;;4.90;63.88;101442.81;5049706;28;20207;-74
2022/03/09 08:49:19;;;;;;;7.13;4.57;;;;;;;4.97;63.71;101446.97;5049927;28;20186;-74
2022/03/09 08:51:45;;;;;;;5.13;4.30;;;;;;;5.16;62.20;101452.09;5049919;28;20186;-73
2022/03/09 08:54:10;;;;;;;6.73;5.10;;;;;;;5.18;62.09;101439.94;5049842;28;20175;-79
2022/03/09 08:56:35;;;;;;;5.60;4.40;;;;;;;5.18;62.13;101445.34;5049706;28;20221;-73
2022/03/09 08:59:01;;;;;;;4.40;3.90;;;;;;;5.16;63.67;101446.69;5049696;28;20662;-74
2022/03/09 09:01:26;;;;;;;5.40;4.10;;;;;;;4.97;68.76;101448.88;5049734;28;20176;-76
2022/03/09 09:03:52;;;;;;;5.40;4.90;;;;;;;5.06;64.08;101445.50;5050036;28;20218;-74
2022/03/09 09:06:17;;;;;;;8.17;4.90;;;;;;;5.15;62.15;101440.44;5049759;28;20182;-74
2022/03/09 09:08:42;;;;;;;6.63;5.13;;;;;;;5.35;61.69;101440.72;5049413;28;20194;-74
2022/03/09 09:11:08;;;;;;;6.33;5.27;;;;;;;5.55;59.92;101445.56;5032890;28;20206;-74
2022/03/09 09:13:33;;;;;;;4.97;4.47;;;;;;;5.70;59.11;101449.53;5053432;28;20206;-73
2022/03/09 09:15:59;;;;;;;5.90;4.77;;;;;;;5.77;58.66;101445.53;5053492;28;20217;-76
2022/03/09 09:18:25;;;;;;;5.80;5.30;;;;;;;5.88;58.10;101449.19;5053282;28;20520;-73
2022/03/09 09:20:51;;;;;;;5.80;5.13;;;;;;;5.99;57.71;101436.56;5053276;28;20171;-73
2022/03/09 09:23:17;;;;;;;8.80;5.47;;;;;;;6.09;57.70;101442.94;5053150;28;20260;-74
2022/03/09 09:25:43;;;;;;;5.80;5.20;;;;;;;6.13;56.97;101435.91;5053676;28;20203;-73
2022/03/09 09:28:08;;;;;;;6.17;5.57;;;;;;;6.26;56.80;101443.63;5052826;28;20186;-73
2022/03/09 09:30:34;;;;;;;4.90;4.33;;;;;;;6.32;55.97;101459.94;5053037;28;20167;-73
2022/03/09 09:33:00;;;;;;;5.67;5.17;;;;;;;6.46;55.54;101451.09;5053255;28;20179;-73
2022/03/09 09:35:25;;;;;;;6.00;5.40;;;;;;;6.47;55.20;101449.22;5053043;28;20658;-73
2022/03/09 09:37:50;;;;;;;6.60;4.60;;;;;;;6.59;55.15;101438.19;5052834;28;20254;-75
2022/03/09 09:40:16;;;;;;;5.10;4.50;;;;;;;6.68;54.98;101439.34;5053337;28;20518;-73
2022/03/09 09:42:42;;;;;;;5.60;4.37;;;;;;;6.81;54.44;101447.03;5052668;28;20720;-73
2022/03/09 09:45:08;;;;;;;6.73;5.13;;;;;;;6.85;53.47;101438.09;5051763;28;20217;-73
2022/03/09 09:47:34;;;;;;;6.07;4.67;;;;;;;6.82;55.95;101445.97;5052470;28;20179;-74
2022/03/09 09:50:01;;;;;;;4.93;4.50;;;;;;;6.81;59.29;101437.00;5052814;28;20555;-73
2022/03/09 09:52:28;;;;;;;6.13;4.90;;;;;;;6.83;59.36;101428.59;5052732;28;20176;-73
2022/03/09 09:54:57;;;;;;;5.83;4.87;;;;;;;6.96;57.29;101438.16;5052670;28;20183;-73
2022/03/09 09:57:23;;;;;;;6.43;5.83;;;;;;;7.00;53.32;101426.50;5052600;28;20183;-73
2022/03/09 09:59:50;;;;;;;5.50;4.73;;;;;;;7.03;52.59;101433.31;5052522;28;20175;-73
2022/03/09 10:02:15;;;;;;;5.40;4.90;;;;;;;7.22;52.19;101428.22;5052600;28;20211;-74
2022/03/09 10:04:41;;;;;;;5.10;4.60;;;;;;;7.35;52.04;101419.59;5052458;28;20278;-74
2022/03/09 10:07:08;;;;;;;5.93;5.33;;;;;;;7.54;51.32;101430.84;5052190;28;20172;-73
2022/03/09 10:09:34;;;;;;;5.37;4.80;;;;;;;7.65;51.33;101424.31;5052227;28;20248;-73
2022/03/09 10:12:00;;;;;;;6.77;4.80;;;;;;;7.86;51.29;101419.75;5052362;28;20258;-73
2022/03/09 10:14:40;;;;;;;10.20;5.47;;;;;;;7.82;49.72;101413.25;5052423;28;20179;-73
2022/03/09 10:17:08;;;;;;;5.37;4.57;;;;;;;7.99;50.33;101413.81;5052061;28;20258;-73
2022/03/09 10:19:36;;;;;;;5.27;4.77;;;;;;;8.13;49.64;101408.66;5052222;28;20193;-73
2022/03/09 10:22:29;;;;;;;4.40;4.00;;;;;;;8.36;50.48;101424.47;5052071;28;20536;-73
2022/03/09 10:24:59;;;;;;;4.70;4.27;;;;;;;8.47;51.02;101423.38;5052415;28;20175;-73
2022/03/09 10:27:33;;;;;;;7.63;4.87;;;;;;;8.57;49.75;101414.41;5033789;28;20199;-73
2022/03/09 10:30:02;;;;;;;5.70;5.03;;;;;;;8.60;48.69;101413.84;5052065;28;20209;-73
2022/03/09 10:32:58;;;;;;;5.30;4.80;;;;;;;8.83;49.37;101418.72;5051894;28;20689;-73
2022/03/09 10:35:27;;;;;;;6.00;4.83;;;;;;;8.69;46.96;101408.66;5052014;28;20635;-74
2022/03/09 10:37:52;;;;;;;5.73;5.13;;;;;;;8.59;46.75;101418.47;5034120;28;20641;-73
2022/03/09 10:40:20;;;;;;;4.97;4.47;;;;;;;8.64;47.37;101399.38;5051835;28;20171;-73
2022/03/09 10:42:47;;;;;;;4.13;3.73;;;;;;;9.10;46.38;101418.34;5051584;28;20230;-73
2022/03/09 10:45:14;;;;;;;4.90;4.40;;;;;;;9.23;45.09;101404.13;5052098;28;20179;-72
2022/03/09 10:47:43;;;;;;;5.40;4.20;;;;;;;9.44;45.97;101406.78;5051461;28;20178;-73
2022/03/09 10:50:18;;;;;;;4.03;3.63;;;;;;;9.56;46.81;101401.00;5051696;28;20179;-73
2022/03/09 10:52:54;;;;;;;5.87;5.37;;;;;;;9.53;46.91;101407.81;5051648;28;20186;-74
2022/03/09 10:55:32;;;;;;;6.53;4.70;;;;;;;9.41;44.06;101391.81;5051555;28;20179;-73
2022/03/09 10:58:08;;;;;;;4.90;4.17;;;;;;;9.50;41.78;101390.09;5051222;28;20540;-73
2022/03/09 11:00:41;;;;;;;4.73;4.03;;;;;;;9.67;42.71;101397.09;5051410;28;20209;-73
2022/03/09 11:03:10;;;;;;;4.40;3.97;;;;;;;9.91;42.60;101395.31;5051398;28;20207;-73
2022/03/09 11:05:36;;;;;;;5.23;4.13;;;;;;;10.01;41.56;101399.91;5051354;28;20175;-73
2022/03/09 11:08:02;;;;;;;5.30;4.67;;;;;;;10.23;41.23;101396.75;5051104;28;20722;-73
2022/03/09 11:10:29;;;;;;;4.17;3.73;;;;;;;10.20;40.47;101402.75;5051222;28;20184;-74
2022/03/09 11:12:55;;;;;;;5.00;4.37;;;;;;;10.16;39.14;101393.50;5033393;28;20504;-73
2022/03/09 11:15:21;;;;;;;3.70;3.23;;;;;;;10.18;38.89;101391.31;5051213;28;20179;-73
2022/03/09 11:17:48;;;;;;;4.07;3.67;;;;;;;10.42;38.19;101389.50;5051007;28;20177;-73
2022/03/09 11:20:17;;;;;;;4.60;4.20;;;;;;;10.73;39.43;101388.09;5050908;28;20332;-73
2022/03/09 11:22:43;;;;;;;4.03;3.57;;;;;;;10.58;37.96;101374.59;5050960;28;20211;-73
2022/03/09 11:25:10;;;;;;;5.43;3.80;;;;;;;10.81;37.25;101378.44;5051132;28;20182;-73
2022/03/09 11:27:46;;;;;;;4.80;4.30;;;;;;;10.60;37.97;101363.38;5050755;28;20334;-74